createdAt,value
2022-08-31T00:01:39.930Z,60.40
2022-08-31T00:04:27.351Z,60.47
2022-08-31T00:07:12.791Z,60.57
2022-08-31T00:09:58.292Z,60.38
2022-08-31T00:12:45.969Z,60.45
2022-08-31T00:15:31.139Z,60.59
2022-08-31T00:18:17.238Z,60.56
2022-08-31T00:21:03.477Z,60.74
2022-08-31T00:23:50.024Z,60.72
2022-08-31T00:26:36.317Z,60.59
2022-08-31T00:29:21.818Z,60.59
2022-08-31T00:32:07.384Z,60.53
2022-08-31T00:34:53.270Z,60.68
2022-08-31T00:37:40.071Z,60.66
2022-08-31T00:40:26.201Z,60.58
2022-08-31T00:43:49.214Z,60.49
2022-08-31T00:46:38.476Z,60.66
2022-08-31T00:49:28.382Z,60.63
2022-08-31T00:52:18.163Z,59.95
2022-08-31T00:55:12.568Z,60.05
2022-08-31T00:58:01.631Z,59.93
2022-08-31T01:00:47.740Z,59.56
2022-08-31T01:03:33.293Z,59.45
2022-08-31T01:06:19.187Z,59.18
2022-08-31T01:09:07.196Z,59.20
2022-08-31T01:11:54.320Z,59.08
2022-08-31T01:14:40.220Z,59.31
2022-08-31T01:17:26.524Z,58.86
2022-08-31T01:20:48.590Z,58.76
2022-08-31T01:23:42.946Z,58.53
2022-08-31T01:26:29.832Z,58.69
2022-08-31T01:29:17.333Z,58.75
2022-08-31T01:32:04.477Z,58.77
2022-08-31T01:34:49.637Z,58.71
2022-08-31T01:37:34.842Z,58.64
2022-08-31T01:40:30.290Z,58.36
2022-08-31T01:43:16.122Z,58.52
2022-08-31T01:46:10.692Z,58.63
2022-08-31T01:48:56.480Z,58.40
2022-08-31T01:51:42.459Z,58.42
2022-08-31T01:54:27.830Z,58.41
2022-08-31T01:57:15.907Z,58.19
2022-08-31T02:00:39.450Z,58.49
2022-08-31T02:03:25.406Z,58.32
2022-08-31T02:06:13.052Z,58.13
2022-08-31T02:08:59.637Z,58.09
2022-08-31T02:11:45.065Z,58.32
2022-08-31T02:14:30.307Z,58.16
2022-08-31T02:17:16.684Z,58.45
2022-08-31T02:20:02.026Z,58.36
2022-08-31T02:22:48.752Z,58.14
2022-08-31T02:25:34.459Z,58.06
2022-08-31T02:28:21.659Z,58.15
2022-08-31T02:31:07.155Z,58.17
2022-08-31T02:34:03.222Z,58.15
2022-08-31T02:36:48.823Z,58.16
2022-08-31T02:39:34.078Z,58.09
2022-08-31T02:42:19.452Z,58.32
2022-08-31T02:45:05.970Z,57.97
2022-08-31T02:47:51.371Z,58.27
2022-08-31T02:50:46.226Z,58.32
2022-08-31T02:53:32.167Z,58.41
2022-08-31T02:56:17.874Z,58.48
2022-08-31T02:59:03.525Z,58.60
2022-08-31T03:01:50.204Z,58.66
2022-08-31T03:04:36.246Z,58.61
2022-08-31T03:07:21.355Z,58.48
2022-08-31T03:10:09.678Z,57.93
2022-08-31T03:12:55.468Z,58.08
2022-08-31T03:15:42.410Z,58.18
2022-08-31T03:18:28.204Z,58.24
2022-08-31T03:21:14.162Z,58.16
2022-08-31T03:23:59.800Z,57.78
2022-08-31T03:26:46.109Z,57.96
2022-08-31T03:29:33.300Z,57.97
2022-08-31T03:32:41.797Z,58.02
2022-08-31T03:35:27.122Z,56.84
2022-08-31T03:38:14.116Z,57.49
2022-08-31T03:41:02.113Z,57.10
2022-08-31T03:43:48.420Z,57.32
2022-08-31T03:46:34.564Z,57.55
2022-08-31T03:49:20.484Z,57.11
2022-08-31T03:52:23.417Z,56.60
2022-08-31T03:55:20.523Z,56.81
2022-08-31T03:58:07.671Z,56.70
2022-08-31T04:00:54.294Z,57.25
2022-08-31T04:04:05.970Z,57.53
2022-08-31T04:07:21.516Z,57.80
2022-08-31T04:10:23.188Z,57.47
2022-08-31T04:13:30.238Z,57.86
2022-08-31T04:16:45.097Z,55.11
2022-08-31T04:19:42.795Z,56.25
2022-08-31T04:22:47.429Z,55.44
2022-08-31T04:25:53.166Z,55.66
2022-08-31T04:28:38.612Z,55.00
2022-08-31T04:31:25.701Z,54.50
2022-08-31T04:34:11.617Z,53.85
2022-08-31T04:36:56.986Z,53.92
2022-08-31T04:39:50.508Z,54.04
2022-08-31T04:42:37.248Z,53.62
2022-08-31T04:45:24.468Z,53.75
2022-08-31T04:48:11.002Z,53.65
2022-08-31T04:51:08.846Z,54.07
2022-08-31T04:53:54.741Z,54.58
2022-08-31T04:56:43.850Z,53.79
2022-08-31T04:59:29.863Z,53.81
2022-08-31T05:02:44.059Z,54.17
2022-08-31T05:05:38.733Z,54.14
2022-08-31T05:08:24.543Z,53.59
2022-08-31T05:11:24.275Z,54.00
2022-08-31T05:14:11.069Z,54.04
2022-08-31T05:17:01.453Z,54.17
2022-08-31T05:19:51.867Z,54.18
2022-08-31T05:22:37.017Z,54.20
2022-08-31T05:25:22.344Z,53.88
2022-08-31T05:28:08.179Z,54.20
2022-08-31T05:30:53.353Z,54.29
2022-08-31T05:33:48.820Z,54.44
2022-08-31T05:36:36.033Z,54.47
2022-08-31T05:39:24.113Z,54.43
2022-08-31T05:42:09.815Z,54.29
2022-08-31T05:44:55.945Z,54.54
2022-08-31T05:47:41.847Z,54.38
2022-08-31T05:50:27.142Z,54.66
2022-08-31T05:53:13.117Z,54.51
2022-08-31T05:56:04.562Z,54.80
2022-08-31T05:58:51.457Z,54.86
2022-08-31T06:01:39.669Z,54.82
2022-08-31T06:04:31.512Z,54.93
2022-08-31T06:07:17.351Z,55.06
2022-08-31T06:10:11.838Z,55.07
2022-08-31T06:12:59.231Z,54.91
2022-08-31T06:15:45.104Z,55.08
2022-08-31T06:18:31.026Z,55.07
2022-08-31T06:21:26.123Z,55.13
2022-08-31T06:24:12.987Z,55.50
2022-08-31T06:27:00.106Z,55.38
2022-08-31T06:29:55.118Z,55.56
2022-08-31T06:32:40.640Z,55.68
2022-08-31T06:35:26.448Z,56.11
2022-08-31T06:38:34.929Z,55.92
2022-08-31T06:41:46.565Z,55.91
2022-08-31T06:44:59.064Z,56.01
2022-08-31T06:48:13.379Z,56.09
2022-08-31T06:50:59.679Z,56.08
2022-08-31T06:53:45.996Z,56.33
2022-08-31T06:57:02.810Z,56.27
2022-08-31T07:00:09.092Z,56.32
2022-08-31T07:03:20.477Z,56.48
2022-08-31T07:06:09.612Z,56.53
2022-08-31T07:08:58.860Z,56.39
2022-08-31T07:11:46.863Z,56.83
2022-08-31T07:14:32.567Z,56.85
2022-08-31T07:17:19.000Z,56.99
2022-08-31T07:20:05.085Z,57.00
2022-08-31T07:22:50.837Z,57.17
2022-08-31T07:25:51.922Z,57.14
2022-08-31T07:28:38.684Z,57.34
2022-08-31T07:31:33.237Z,57.33
2022-08-31T07:34:21.739Z,57.52
2022-08-31T07:37:44.720Z,57.55
2022-08-31T07:40:49.978Z,57.67
2022-08-31T07:43:37.198Z,57.76
2022-08-31T07:46:30.123Z,58.01
2022-08-31T07:49:16.617Z,57.80
2022-08-31T07:52:31.736Z,57.68
2022-08-31T07:55:23.488Z,57.93
2022-08-31T07:58:17.467Z,57.87
2022-08-31T08:01:06.267Z,57.98
2022-08-31T08:03:53.587Z,58.06
2022-08-31T08:07:00.451Z,58.25
2022-08-31T08:10:14.451Z,58.28
2022-08-31T08:13:23.254Z,58.32
2022-08-31T08:16:17.527Z,58.44
2022-08-31T08:19:08.930Z,58.41
2022-08-31T08:21:55.390Z,58.56
2022-08-31T08:24:46.864Z,58.50
2022-08-31T08:27:54.357Z,58.67
2022-08-31T08:31:03.107Z,58.57
2022-08-31T08:33:51.712Z,58.68
2022-08-31T08:36:37.409Z,58.58
2022-08-31T08:39:24.594Z,58.69
2022-08-31T08:42:24.144Z,58.58
2022-08-31T08:45:10.270Z,58.38
2022-08-31T08:47:57.020Z,58.60
2022-08-31T08:50:43.945Z,58.71
2022-08-31T08:53:38.459Z,59.01
2022-08-31T08:56:47.670Z,58.70
2022-08-31T08:59:37.094Z,58.97
2022-08-31T09:02:45.185Z,58.89
2022-08-31T09:06:09.663Z,58.88
2022-08-31T09:09:26.769Z,58.99
2022-08-31T09:12:44.885Z,59.10
2022-08-31T09:15:49.150Z,59.04
2022-08-31T09:18:54.330Z,59.15
2022-08-31T09:21:56.734Z,59.27
2022-08-31T09:24:41.816Z,59.39
2022-08-31T09:27:59.753Z,59.05
2022-08-31T09:30:45.101Z,59.20
2022-08-31T09:33:34.084Z,59.13
2022-08-31T09:36:23.073Z,59.05
2022-08-31T09:39:28.878Z,59.12
2022-08-31T09:42:32.153Z,59.15
2022-08-31T09:45:29.951Z,59.32
2022-08-31T09:48:46.398Z,59.21
2022-08-31T09:51:35.256Z,59.31
2022-08-31T09:54:47.153Z,59.31
2022-08-31T09:57:53.981Z,58.97
2022-08-31T10:00:42.688Z,58.99
2022-08-31T10:03:31.093Z,58.96
2022-08-31T10:06:44.564Z,58.70
2022-08-31T10:09:36.269Z,58.84
2022-08-31T10:12:47.030Z,58.97
2022-08-31T10:15:52.268Z,58.85
2022-08-31T10:18:50.978Z,58.94
2022-08-31T10:21:52.281Z,58.86
2022-08-31T10:24:46.608Z,58.87
2022-08-31T10:27:39.046Z,58.66
2022-08-31T10:30:35.791Z,58.60
2022-08-31T10:33:46.834Z,58.35
2022-08-31T10:36:38.513Z,58.37
2022-08-31T10:39:39.758Z,58.58
2022-08-31T10:42:30.104Z,58.64
2022-08-31T10:45:25.403Z,58.58
2022-08-31T10:48:13.099Z,58.67
2022-08-31T10:51:13.246Z,58.43
2022-08-31T10:54:06.865Z,58.15
2022-08-31T10:56:59.160Z,58.02
2022-08-31T10:59:51.852Z,58.07
2022-08-31T11:03:01.942Z,57.86
2022-08-31T11:06:01.249Z,57.99
2022-08-31T11:09:20.371Z,57.95
2022-08-31T11:12:23.854Z,57.92
2022-08-31T11:15:39.341Z,57.98
2022-08-31T11:18:24.778Z,57.71
2022-08-31T11:21:47.787Z,57.70
2022-08-31T11:24:37.428Z,57.91
2022-08-31T11:27:27.240Z,57.65
2022-08-31T11:30:31.703Z,57.54
2022-08-31T11:33:28.117Z,57.45
2022-08-31T11:36:42.228Z,57.29
2022-08-31T11:39:33.738Z,56.87
2022-08-31T11:42:19.008Z,57.13
2022-08-31T11:45:28.788Z,57.25
2022-08-31T11:48:53.765Z,57.00
2022-08-31T11:51:42.846Z,57.07
2022-08-31T11:54:27.879Z,56.75
2022-08-31T11:57:18.924Z,56.47
2022-08-31T12:00:19.267Z,55.97
2022-08-31T12:03:09.392Z,55.87
2022-08-31T12:05:57.849Z,55.57
2022-08-31T12:08:54.603Z,55.52
2022-08-31T12:11:55.529Z,55.86
2022-08-31T12:14:56.684Z,55.72
2022-08-31T12:17:44.347Z,55.57
2022-08-31T12:21:22.512Z,55.59
2022-08-31T12:24:18.916Z,55.87
2022-08-31T12:27:45.954Z,55.79
2022-08-31T12:30:31.344Z,55.52
2022-08-31T12:33:23.179Z,55.58
2022-08-31T12:36:25.231Z,55.33
2022-08-31T12:39:12.554Z,55.94
2022-08-31T12:42:04.692Z,56.34
2022-08-31T12:44:52.333Z,56.08
2022-08-31T12:48:01.767Z,55.01
2022-08-31T12:50:52.669Z,55.96
2022-08-31T12:53:53.832Z,55.97
2022-08-31T12:56:54.516Z,56.02
2022-08-31T13:00:00.444Z,56.11
2022-08-31T13:02:51.536Z,55.69
2022-08-31T13:05:39.102Z,55.94
2022-08-31T13:08:25.950Z,56.02
2022-08-31T13:11:26.399Z,56.37
2022-08-31T13:14:25.157Z,56.36
2022-08-31T13:17:16.056Z,56.66
2022-08-31T13:20:01.735Z,56.85
2022-08-31T13:22:57.163Z,56.86
2022-08-31T13:25:43.258Z,56.98
2022-08-31T13:28:33.168Z,57.02
2022-08-31T13:31:22.940Z,57.26
2022-08-31T13:34:09.645Z,57.15
2022-08-31T13:36:59.987Z,57.00
2022-08-31T13:39:46.924Z,57.08
2022-08-31T13:42:41.273Z,57.32
2022-08-31T13:45:31.411Z,57.02
2022-08-31T13:48:33.692Z,56.40
2022-08-31T13:51:20.870Z,56.34
2022-08-31T13:54:14.179Z,56.54
2022-08-31T13:57:16.574Z,56.19
2022-08-31T14:00:35.300Z,56.26
2022-08-31T14:03:41.012Z,55.74
2022-08-31T14:06:32.194Z,55.72
2022-08-31T14:09:19.129Z,56.11
2022-08-31T14:12:05.341Z,55.77
2022-08-31T14:14:50.694Z,55.67
2022-08-31T14:17:41.636Z,55.50
2022-08-31T14:20:36.862Z,56.04
2022-08-31T14:23:25.392Z,56.39
2022-08-31T14:26:22.884Z,56.42
2022-08-31T14:29:16.544Z,56.26
2022-08-31T14:32:04.673Z,56.14
2022-08-31T14:34:51.347Z,56.09
2022-08-31T14:37:38.287Z,56.63
2022-08-31T14:40:23.633Z,56.58
2022-08-31T14:43:13.400Z,56.31
2022-08-31T14:45:58.809Z,56.16
2022-08-31T14:48:44.798Z,56.29
2022-08-31T14:51:30.769Z,56.44
2022-08-31T14:54:17.177Z,56.24
2022-08-31T14:57:16.005Z,56.21
2022-08-31T15:00:03.872Z,56.44
2022-08-31T15:02:53.538Z,56.11
2022-08-31T15:05:40.035Z,56.21
2022-08-31T15:08:37.909Z,56.21
2022-08-31T15:11:24.133Z,56.36
2022-08-31T15:14:12.622Z,56.39
2022-08-31T15:17:01.343Z,56.29
2022-08-31T15:19:48.154Z,56.30
2022-08-31T15:22:40.572Z,56.35
2022-08-31T15:25:26.297Z,56.33
2022-08-31T15:28:11.448Z,56.25
2022-08-31T15:30:57.867Z,57.01
2022-08-31T15:33:49.250Z,56.80
2022-08-31T15:36:35.970Z,56.67
2022-08-31T15:39:27.433Z,56.46
2022-08-31T15:42:13.938Z,56.63
2022-08-31T15:45:00.502Z,57.16
2022-08-31T15:48:04.924Z,57.85
2022-08-31T15:51:00.759Z,56.76
2022-08-31T15:54:06.126Z,56.48
2022-08-31T15:56:54.389Z,57.03
2022-08-31T15:59:43.233Z,56.97
2022-08-31T16:02:37.393Z,56.67
2022-08-31T16:05:35.740Z,56.60
2022-08-31T16:08:24.578Z,56.12
2022-08-31T16:11:11.617Z,56.10
2022-08-31T16:14:01.382Z,56.89
2022-08-31T16:16:53.388Z,56.35
2022-08-31T16:19:40.153Z,55.81
2022-08-31T16:22:30.569Z,55.95
2022-08-31T16:25:17.690Z,55.50
2022-08-31T16:28:06.311Z,55.82
2022-08-31T16:30:52.144Z,56.03
2022-08-31T16:33:41.838Z,55.77
2022-08-31T16:36:28.497Z,56.21
2022-08-31T16:39:14.553Z,56.07
2022-08-31T16:41:59.877Z,56.85
2022-08-31T16:44:48.102Z,56.33
2022-08-31T16:47:33.745Z,56.37
2022-08-31T16:50:19.313Z,56.41
2022-08-31T16:53:04.865Z,56.61
2022-08-31T16:55:50.299Z,56.98
2022-08-31T16:58:51.728Z,57.53
2022-08-31T17:01:41.262Z,57.35
2022-08-31T17:04:51.168Z,57.81
2022-08-31T17:07:32.485Z,57.70
2022-08-31T17:10:18.635Z,57.67
2022-08-31T17:13:04.142Z,57.12
2022-08-31T17:15:49.427Z,57.00
2022-08-31T17:18:34.833Z,56.92
2022-08-31T17:21:25.022Z,57.03
2022-08-31T17:24:14.913Z,57.13
2022-08-31T17:27:04.432Z,56.93
2022-08-31T17:29:51.960Z,57.24
2022-08-31T17:32:44.731Z,57.32
2022-08-31T17:35:32.000Z,57.50
2022-08-31T17:38:18.351Z,57.46
2022-08-31T17:41:08.104Z,57.68
2022-08-31T17:43:59.071Z,57.66
2022-08-31T17:46:47.412Z,57.74
2022-08-31T17:49:37.972Z,57.95
2022-08-31T17:52:23.762Z,58.01
2022-08-31T17:55:09.288Z,58.10
2022-08-31T17:57:54.747Z,57.93
2022-08-31T18:00:40.249Z,58.16
2022-08-31T18:03:25.747Z,58.14
2022-08-31T18:06:11.298Z,58.12
2022-08-31T18:08:58.989Z,58.50
2022-08-31T18:11:47.776Z,58.92
2022-08-31T18:14:35.780Z,58.82
2022-08-31T18:17:22.443Z,58.31
2022-08-31T18:20:08.434Z,58.32
2022-08-31T18:22:54.077Z,58.43
2022-08-31T18:25:40.896Z,58.42
2022-08-31T18:28:26.270Z,58.16
2022-08-31T18:31:11.834Z,58.31
2022-08-31T18:34:00.824Z,58.29
2022-08-31T18:36:46.690Z,58.43
2022-08-31T18:39:52.506Z,58.38
2022-08-31T18:42:57.207Z,58.42
2022-08-31T18:45:48.138Z,58.62
2022-08-31T18:48:33.744Z,58.36
2022-08-31T18:51:23.257Z,58.42
2022-08-31T18:54:09.026Z,58.67
2022-08-31T18:56:54.330Z,58.63
2022-08-31T18:59:39.736Z,58.65
2022-08-31T19:02:28.073Z,58.63
2022-08-31T19:05:14.648Z,58.59
2022-08-31T19:08:00.536Z,58.60
2022-08-31T19:10:46.879Z,58.81
2022-08-31T19:13:35.296Z,58.77
2022-08-31T19:16:26.801Z,58.86
2022-08-31T19:19:13.206Z,58.84
2022-08-31T19:21:58.679Z,58.94
2022-08-31T19:24:44.207Z,58.96
2022-08-31T19:27:29.683Z,58.83
2022-08-31T19:30:15.256Z,58.82
2022-08-31T19:33:03.635Z,59.12
2022-08-31T19:35:58.199Z,59.03
2022-08-31T19:38:49.132Z,59.00
2022-08-31T19:41:36.096Z,58.99
2022-08-31T19:44:22.210Z,58.79
2022-08-31T19:47:24.458Z,58.99
2022-08-31T19:50:15.056Z,58.95
2022-08-31T19:53:01.699Z,59.02
2022-08-31T19:55:50.030Z,59.15
2022-08-31T19:58:36.064Z,59.03
2022-08-31T20:01:25.377Z,58.99
2022-08-31T20:04:16.706Z,58.91
2022-08-31T20:07:07.062Z,58.88
2022-08-31T20:09:55.210Z,58.69
2022-08-31T20:12:42.752Z,58.80
2022-08-31T20:15:28.153Z,58.71
2022-08-31T20:18:13.647Z,58.68
2022-08-31T20:21:01.057Z,58.85
2022-08-31T20:23:48.448Z,58.66
2022-08-31T20:26:47.496Z,58.65
2022-08-31T20:29:38.790Z,58.66
2022-08-31T20:32:25.854Z,58.64
2022-08-31T20:35:11.067Z,58.52
2022-08-31T20:37:56.476Z,58.61
2022-08-31T20:40:43.386Z,58.55
2022-08-31T20:43:35.311Z,58.52
2022-08-31T20:46:39.358Z,58.37
2022-08-31T20:49:26.707Z,58.13
2022-08-31T20:52:14.421Z,58.23
2022-08-31T20:55:02.755Z,58.33
2022-08-31T20:57:49.225Z,58.13
2022-08-31T21:00:36.380Z,58.13
2022-08-31T21:03:22.140Z,58.07
2022-08-31T21:06:11.608Z,57.98
2022-08-31T21:08:57.261Z,57.89
2022-08-31T21:11:43.703Z,57.96
2022-08-31T21:14:29.447Z,57.92
2022-08-31T21:17:15.937Z,57.98
2022-08-31T21:20:01.267Z,57.96
2022-08-31T21:22:46.871Z,57.99
2022-08-31T21:25:32.163Z,57.76
2022-08-31T21:28:18.600Z,57.58
2022-08-31T21:31:18.238Z,57.67
2022-08-31T21:34:03.873Z,57.57
2022-08-31T21:36:50.149Z,57.38
2022-08-31T21:39:35.700Z,57.44
2022-08-31T21:42:21.333Z,57.42
2022-08-31T21:45:07.400Z,57.37
2022-08-31T21:47:52.910Z,57.29
2022-08-31T21:50:38.426Z,57.32
2022-08-31T21:53:25.869Z,57.36
2022-08-31T21:56:11.782Z,57.22
2022-08-31T21:58:59.218Z,57.25
2022-08-31T22:01:45.291Z,57.13
2022-08-31T22:04:32.136Z,57.03
2022-08-31T22:07:17.544Z,57.13
2022-08-31T22:10:02.782Z,57.17
2022-08-31T22:12:48.171Z,56.84
2022-08-31T22:15:36.790Z,56.84
2022-08-31T22:21:31.026Z,56.55
2022-08-31T22:24:27.650Z,56.82
2022-08-31T22:27:13.561Z,56.79
2022-08-31T22:29:58.997Z,56.67
2022-08-31T22:32:47.949Z,56.57
2022-08-31T22:35:38.898Z,56.63
2022-08-31T22:38:24.812Z,56.71
2022-08-31T22:41:12.239Z,56.37
2022-08-31T22:43:57.732Z,56.57
2022-08-31T22:46:44.207Z,56.58
2022-08-31T22:49:29.679Z,56.43
2022-08-31T22:52:17.370Z,56.35
2022-08-31T22:55:03.905Z,56.16
2022-08-31T22:57:49.646Z,56.13
2022-08-31T23:00:35.435Z,56.17
2022-08-31T23:03:22.112Z,56.19
2022-08-31T23:06:07.701Z,56.01
2022-08-31T23:08:55.630Z,56.06
2022-08-31T23:11:41.299Z,55.94
2022-08-31T23:14:27.715Z,56.03
2022-08-31T23:17:13.830Z,55.96
2022-08-31T23:20:02.842Z,56.11
2022-08-31T23:22:49.787Z,55.55
2022-08-31T23:25:35.438Z,55.82
2022-08-31T23:28:20.779Z,55.75
2022-08-31T23:31:09.894Z,55.96
2022-08-31T23:33:55.398Z,55.71
2022-08-31T23:36:48.804Z,55.77
2022-08-31T23:39:35.617Z,55.53
2022-08-31T23:42:23.172Z,55.58
2022-08-31T23:45:10.049Z,55.55
2022-08-31T23:47:57.763Z,55.60
2022-08-31T23:50:43.022Z,55.70
2022-08-31T23:53:28.234Z,55.67
2022-08-31T23:56:13.556Z,55.57
2022-08-31T23:59:01.137Z,55.44
